createdAt,value
2022-07-29T00:01:39.772Z,56.86
2022-07-29T00:04:05.701Z,56.83
2022-07-29T00:06:31.614Z,57.29
2022-07-29T00:08:57.464Z,56.12
2022-07-29T00:11:23.387Z,55.08
2022-07-29T00:13:51.135Z,55.76
2022-07-29T00:16:17.179Z,55.00
2022-07-29T04:04:12.978Z,52.47
2022-07-29T04:06:41.467Z,52.27
2022-07-29T04:09:07.635Z,52.58
2022-07-29T04:12:01.577Z,52.80
2022-07-29T04:14:24.125Z,52.86
2022-07-29T04:16:49.910Z,52.24
2022-07-29T04:19:15.709Z,52.44
2022-07-29T04:21:41.791Z,52.02
2022-07-29T04:24:08.470Z,52.09
2022-07-29T04:26:34.839Z,51.68
2022-07-29T04:29:01.244Z,51.61
2022-07-29T04:31:27.302Z,51.12
2022-07-29T04:33:53.573Z,51.44
2022-07-29T04:36:29.357Z,51.30
2022-07-29T04:38:55.954Z,51.75
2022-07-29T04:41:21.725Z,52.45
2022-07-29T04:43:47.905Z,52.70
2022-07-29T04:46:13.736Z,52.62
2022-07-29T04:48:39.680Z,52.79
2022-07-29T04:51:05.558Z,52.25
2022-07-29T04:53:31.409Z,52.95
2022-07-29T04:55:57.246Z,52.29
2022-07-29T04:58:23.871Z,53.05
2022-07-29T05:00:50.629Z,52.25
2022-07-29T05:03:16.652Z,52.02
2022-07-29T05:05:42.655Z,51.76
2022-07-29T05:08:08.596Z,50.90
2022-07-29T05:10:38.243Z,51.08
2022-07-29T05:13:07.905Z,51.49
2022-07-29T05:15:34.879Z,52.13
2022-07-29T05:18:01.313Z,52.94
2022-07-29T05:20:28.551Z,54.26
2022-07-29T05:22:56.409Z,55.34
2022-07-29T05:25:22.259Z,55.19
2022-07-29T05:27:48.104Z,55.06
2022-07-29T05:30:16.930Z,56.03
2022-07-29T05:32:42.843Z,56.00
2022-07-29T05:35:09.008Z,56.67
2022-07-29T05:37:34.876Z,55.13
2022-07-29T05:40:00.728Z,54.63
2022-07-29T05:42:26.835Z,54.51
2022-07-29T05:44:53.406Z,55.33
2022-07-29T05:47:19.394Z,55.40
2022-07-29T05:49:46.314Z,55.47
2022-07-29T05:52:13.413Z,55.68
2022-07-29T05:54:39.940Z,55.52
2022-07-29T05:57:06.023Z,55.79
2022-07-29T05:59:36.206Z,56.11
2022-07-29T06:02:02.121Z,56.40
2022-07-29T06:04:28.027Z,56.43
2022-07-29T06:06:53.880Z,57.10
2022-07-29T06:09:19.684Z,57.53
2022-07-29T06:11:45.995Z,57.49
2022-07-29T06:14:12.213Z,57.95
2022-07-29T06:16:38.556Z,59.28
2022-07-29T06:19:04.868Z,59.57
2022-07-29T06:21:30.668Z,60.60
2022-07-29T06:23:56.493Z,60.65
2022-07-29T06:26:31.011Z,61.07
2022-07-29T06:28:57.455Z,61.28
2022-07-29T06:31:23.324Z,61.11
2022-07-29T06:33:49.222Z,61.20
2022-07-29T06:36:15.781Z,61.08
2022-07-29T06:38:49.488Z,61.13
2022-07-29T06:41:18.242Z,60.09
2022-07-29T06:43:51.730Z,60.62
2022-07-29T06:46:20.097Z,60.88
2022-07-29T06:48:47.791Z,60.22
2022-07-29T06:51:13.794Z,60.43
2022-07-29T06:53:39.825Z,60.64
2022-07-29T06:56:25.313Z,60.19
2022-07-29T06:58:51.232Z,60.03
2022-07-29T07:01:17.196Z,59.52
2022-07-29T07:03:43.058Z,60.15
2022-07-29T07:06:14.645Z,60.66
2022-07-29T07:08:40.849Z,59.41
2022-07-29T07:11:07.482Z,60.22
2022-07-29T07:13:34.697Z,61.22
2022-07-29T07:16:03.681Z,59.74
2022-07-29T07:18:29.592Z,57.92
2022-07-29T07:20:57.070Z,57.31
2022-07-29T07:23:23.063Z,57.52
2022-07-29T07:25:48.924Z,56.67
2022-07-29T07:28:14.735Z,57.42
2022-07-29T07:30:40.645Z,58.25
2022-07-29T07:33:06.658Z,57.38
2022-07-29T07:35:32.876Z,56.99
2022-07-29T07:37:59.033Z,57.20
2022-07-29T07:40:25.198Z,56.17
2022-07-29T07:42:51.108Z,55.90
2022-07-29T07:45:17.780Z,56.29
2022-07-29T07:47:43.964Z,56.55
2022-07-29T07:50:16.334Z,57.15
2022-07-29T07:52:54.739Z,57.73
2022-07-29T07:55:20.837Z,57.68
2022-07-29T07:57:47.203Z,57.41
2022-07-29T08:00:15.146Z,56.99
2022-07-29T08:02:41.133Z,56.40
2022-07-29T08:05:07.947Z,54.17
2022-07-29T08:07:38.702Z,53.38
2022-07-29T08:10:04.989Z,51.29
2022-07-29T08:12:30.816Z,51.06
2022-07-29T08:14:56.766Z,49.30
2022-07-29T08:17:25.363Z,48.86
2022-07-29T08:19:51.244Z,48.90
2022-07-29T08:22:17.132Z,48.67
2022-07-29T08:24:43.019Z,49.66
2022-07-29T08:27:33.592Z,47.97
2022-07-29T08:29:56.903Z,47.49
2022-07-29T08:32:50.826Z,46.54
2022-07-29T08:35:09.243Z,45.38
2022-07-29T08:37:35.162Z,45.61
2022-07-29T08:40:00.953Z,47.08
2022-07-29T08:42:26.773Z,46.91
2022-07-29T08:44:53.988Z,47.70
2022-07-29T08:47:19.860Z,47.17
2022-07-29T08:49:47.387Z,46.99
2022-07-29T08:52:14.589Z,46.77
2022-07-29T08:54:43.997Z,47.06
2022-07-29T08:57:13.222Z,46.69
2022-07-29T08:59:42.704Z,46.16
2022-07-29T09:02:19.010Z,45.13
2022-07-29T09:04:45.470Z,44.70
2022-07-29T09:07:15.249Z,44.07
2022-07-29T09:09:41.458Z,44.25
2022-07-29T09:12:08.482Z,43.96
2022-07-29T09:14:34.569Z,43.91
2022-07-29T09:17:01.612Z,43.98
2022-07-29T09:19:33.695Z,43.76
2022-07-29T09:22:02.985Z,43.22
2022-07-29T09:24:47.585Z,43.50
2022-07-29T09:27:29.274Z,43.36
2022-07-29T09:30:10.903Z,43.09
2022-07-29T09:33:06.186Z,42.77
2022-07-29T09:35:32.238Z,42.41
2022-07-29T09:37:58.144Z,42.37
2022-07-29T09:40:27.112Z,42.28
2022-07-29T09:42:57.119Z,42.09
2022-07-29T09:45:33.832Z,41.93
2022-07-29T09:48:13.529Z,42.18
2022-07-29T09:50:40.812Z,42.04
2022-07-29T09:53:07.071Z,41.17
2022-07-29T09:55:32.889Z,40.66
2022-07-29T09:58:20.116Z,41.04
2022-07-29T10:00:47.327Z,40.41
2022-07-29T10:03:14.947Z,40.06
2022-07-29T10:05:42.282Z,40.38
2022-07-29T10:08:09.180Z,40.01
2022-07-29T10:10:37.344Z,40.58
2022-07-29T10:13:09.814Z,40.24
2022-07-29T10:15:41.019Z,40.56
2022-07-29T10:18:08.503Z,40.85
2022-07-29T10:20:35.277Z,41.79
2022-07-29T10:23:01.235Z,42.65
2022-07-29T10:25:27.468Z,42.77
2022-07-29T10:27:55.095Z,42.44
2022-07-29T10:30:23.415Z,42.61
2022-07-29T10:32:55.167Z,42.32
2022-07-29T10:35:38.671Z,41.89
2022-07-29T10:38:07.570Z,41.87
2022-07-29T10:40:59.997Z,41.41
2022-07-29T10:43:36.370Z,41.31
2022-07-29T10:46:04.864Z,42.16
2022-07-29T10:48:33.886Z,42.41
2022-07-29T10:51:04.329Z,42.89
2022-07-29T10:53:51.060Z,42.66
2022-07-29T10:56:28.854Z,41.94
2022-07-29T10:59:26.575Z,42.50
2022-07-29T11:02:10.881Z,42.28
2022-07-29T11:04:44.138Z,42.04
2022-07-29T11:07:10.909Z,42.23
2022-07-29T11:09:38.384Z,42.43
2022-07-29T11:12:36.122Z,43.27
2022-07-29T11:15:02.887Z,43.56
2022-07-29T11:17:46.922Z,43.82
2022-07-29T11:20:36.504Z,44.15
2022-07-29T11:23:25.069Z,42.52
2022-07-29T11:26:27.730Z,42.28
2022-07-29T11:28:59.745Z,41.58
2022-07-29T11:31:48.803Z,41.53
2022-07-29T11:34:21.632Z,40.59
2022-07-29T11:37:06.882Z,40.55
2022-07-29T11:39:36.772Z,40.43
2022-07-29T11:42:28.156Z,39.86
2022-07-29T11:44:58.978Z,39.64
2022-07-29T11:47:38.326Z,39.74
2022-07-29T11:50:10.254Z,38.50
2022-07-29T11:52:50.085Z,37.96
2022-07-29T11:55:18.699Z,37.04
2022-07-29T11:58:03.476Z,38.03
2022-07-29T12:00:38.052Z,37.12
2022-07-29T12:03:09.706Z,37.25
2022-07-29T12:05:48.224Z,36.45
2022-07-29T12:08:22.228Z,35.73
2022-07-29T12:10:50.893Z,35.35
2022-07-29T12:13:19.196Z,36.40
2022-07-29T12:15:55.009Z,36.25
2022-07-29T12:18:24.083Z,36.20
2022-07-29T12:20:58.086Z,35.87
2022-07-29T12:23:24.304Z,34.73
2022-07-29T12:25:55.817Z,34.71
2022-07-29T12:28:26.861Z,34.96
2022-07-29T12:30:53.593Z,35.42
2022-07-29T12:33:27.780Z,35.31
2022-07-29T12:36:09.483Z,34.90
2022-07-29T12:38:40.870Z,34.41
2022-07-29T12:41:06.932Z,34.57
2022-07-29T12:43:32.961Z,34.69
2022-07-29T12:46:13.179Z,35.04
2022-07-29T12:48:41.663Z,34.31
2022-07-29T12:51:09.285Z,34.68
2022-07-29T12:53:36.218Z,34.39
2022-07-29T12:56:15.515Z,34.32
2022-07-29T12:58:51.927Z,33.69
2022-07-29T13:01:20.241Z,33.66
2022-07-29T13:03:56.999Z,33.14
2022-07-29T13:06:29.850Z,33.10
2022-07-29T13:09:08.292Z,33.48
2022-07-29T13:11:34.151Z,32.89
2022-07-29T13:14:06.518Z,33.60
2022-07-29T13:16:33.412Z,34.93
2022-07-29T13:19:11.427Z,36.54
2022-07-29T13:21:38.703Z,37.80
2022-07-29T13:24:06.408Z,38.67
2022-07-29T13:26:32.752Z,38.98
2022-07-29T13:28:58.631Z,38.39
2022-07-29T13:31:24.567Z,38.34
2022-07-29T13:33:50.538Z,38.93
2022-07-29T13:36:18.909Z,38.03
2022-07-29T13:38:44.905Z,38.27
2022-07-29T13:41:10.863Z,37.64
2022-07-29T13:43:36.805Z,38.11
2022-07-29T13:46:02.718Z,38.03
2022-07-29T13:48:28.642Z,37.56
2022-07-29T13:50:54.427Z,38.15
2022-07-29T13:53:20.379Z,38.84
2022-07-29T13:55:53.426Z,39.65
2022-07-29T13:58:19.307Z,38.41
2022-07-29T14:00:45.790Z,39.47
2022-07-29T14:03:11.689Z,39.78
2022-07-29T14:05:37.577Z,41.11
2022-07-29T14:08:03.615Z,40.60
2022-07-29T14:10:29.563Z,39.99
2022-07-29T14:12:55.345Z,39.14
2022-07-29T14:15:21.165Z,38.69
2022-07-29T14:17:47.000Z,39.54
2022-07-29T14:20:13.247Z,39.80
2022-07-29T14:22:42.638Z,40.00
2022-07-29T14:25:14.987Z,39.64
2022-07-29T14:27:42.022Z,39.60
2022-07-29T14:30:08.700Z,39.91
2022-07-29T14:32:34.579Z,39.57
2022-07-29T14:35:00.559Z,39.76
2022-07-29T14:37:26.408Z,40.17
2022-07-29T14:39:52.268Z,40.22
2022-07-29T14:42:18.073Z,40.06
2022-07-29T14:44:44.734Z,39.57
2022-07-29T14:47:10.671Z,40.20
2022-07-29T14:49:36.598Z,40.29
2022-07-29T14:52:02.955Z,41.46
2022-07-29T14:54:28.826Z,40.92
2022-07-29T14:56:57.188Z,40.49
2022-07-29T14:59:23.557Z,40.74
2022-07-29T15:01:50.143Z,41.57
2022-07-29T15:04:16.029Z,42.92
2022-07-29T15:06:41.962Z,42.15
2022-07-29T15:09:07.810Z,41.96
2022-07-29T15:11:38.211Z,41.59
2022-07-29T15:14:05.218Z,41.85
2022-07-29T15:16:31.148Z,42.32
2022-07-29T15:18:58.007Z,42.43
2022-07-29T15:21:28.637Z,41.91
2022-07-29T15:24:03.049Z,42.38
2022-07-29T15:26:31.457Z,40.41
2022-07-29T15:28:57.287Z,40.75
2022-07-29T15:31:23.278Z,40.27
2022-07-29T15:33:49.114Z,39.70
2022-07-29T15:36:42.246Z,39.15
2022-07-29T15:39:01.407Z,39.02
2022-07-29T15:41:27.327Z,39.52
2022-07-29T15:43:53.180Z,40.04
2022-07-29T15:46:38.197Z,40.86
2022-07-29T15:49:05.969Z,40.34
2022-07-29T15:51:32.351Z,39.65
2022-07-29T15:53:58.675Z,39.11
2022-07-29T15:56:24.560Z,39.65
2022-07-29T15:58:51.011Z,39.43
2022-07-29T16:01:17.094Z,39.66
2022-07-29T16:03:46.238Z,40.56
2022-07-29T16:06:13.352Z,39.97
2022-07-29T16:08:39.247Z,40.53
2022-07-29T16:11:05.089Z,41.07
2022-07-29T16:13:31.487Z,40.75
2022-07-29T16:16:06.629Z,40.92
2022-07-29T16:18:32.511Z,40.14
2022-07-29T16:20:58.476Z,41.10
2022-07-29T16:23:24.264Z,40.66
2022-07-29T16:25:59.787Z,41.30
2022-07-29T16:28:27.632Z,41.66
2022-07-29T16:30:53.683Z,41.82
2022-07-29T16:33:19.535Z,42.37
2022-07-29T16:35:45.354Z,42.20
2022-07-29T16:38:11.452Z,42.91
2022-07-29T16:40:38.192Z,42.16
2022-07-29T16:43:04.051Z,41.85
2022-07-29T16:45:44.413Z,41.51
2022-07-29T16:48:11.701Z,41.52
2022-07-29T16:50:38.217Z,42.11
2022-07-29T16:53:04.041Z,42.13
2022-07-29T16:55:29.848Z,42.27
2022-07-29T16:57:56.189Z,41.84
2022-07-29T17:00:22.911Z,42.74
2022-07-29T17:02:48.926Z,41.78
2022-07-29T17:05:15.128Z,43.10
2022-07-29T17:07:41.866Z,42.29
2022-07-29T17:10:09.417Z,42.51
2022-07-29T17:12:37.314Z,42.66
2022-07-29T17:15:05.420Z,43.28
2022-07-29T17:17:38.611Z,43.41
2022-07-29T17:20:17.806Z,43.16
2022-07-29T17:22:43.702Z,44.18
2022-07-29T17:25:09.990Z,44.10
2022-07-29T17:27:36.250Z,44.34
2022-07-29T17:30:04.987Z,45.60
2022-07-29T17:32:35.694Z,46.71
2022-07-29T17:35:02.932Z,47.44
2022-07-29T17:37:28.800Z,48.04
2022-07-29T17:39:58.609Z,47.77
2022-07-29T17:42:26.177Z,48.88
2022-07-29T17:44:52.424Z,49.47
2022-07-29T17:47:18.252Z,49.77
2022-07-29T17:49:44.772Z,49.93
2022-07-29T17:52:10.667Z,49.71
2022-07-29T17:54:36.488Z,49.88
2022-07-29T17:57:02.574Z,49.84
2022-07-29T17:59:28.513Z,49.96
2022-07-29T18:02:01.117Z,50.38
2022-07-29T18:04:27.961Z,51.42
2022-07-29T18:06:53.834Z,51.59
2022-07-29T18:09:19.678Z,51.61
2022-07-29T18:11:46.777Z,51.87
2022-07-29T18:14:12.746Z,50.96
2022-07-29T18:16:38.752Z,50.65
2022-07-29T18:19:04.799Z,51.81
2022-07-29T18:21:42.591Z,52.52
2022-07-29T18:24:16.513Z,53.21
2022-07-29T18:26:42.339Z,54.50
2022-07-29T18:29:10.455Z,54.93
2022-07-29T18:31:36.766Z,55.35
2022-07-29T18:34:02.706Z,55.67
2022-07-29T18:36:28.572Z,55.60
2022-07-29T18:38:54.806Z,55.60
2022-07-29T18:41:20.630Z,55.87
2022-07-29T18:43:46.474Z,55.64
2022-07-29T18:46:12.932Z,56.93
2022-07-29T18:48:38.891Z,57.49
2022-07-29T18:51:09.141Z,58.12
2022-07-29T18:53:35.962Z,57.97
2022-07-29T18:56:02.846Z,58.27
2022-07-29T18:58:28.837Z,58.28
2022-07-29T19:00:54.652Z,59.17
2022-07-29T19:03:20.512Z,59.18
2022-07-29T19:05:46.381Z,59.84
2022-07-29T19:08:13.657Z,60.62
2022-07-29T19:10:39.667Z,60.96
2022-07-29T19:13:06.086Z,61.09
2022-07-29T19:15:31.967Z,61.14
2022-07-29T19:18:01.137Z,61.42
2022-07-29T19:20:27.626Z,62.19
2022-07-29T19:22:53.670Z,62.31
2022-07-29T19:25:19.623Z,62.43
2022-07-29T19:27:46.093Z,62.29
2022-07-29T19:30:12.248Z,62.54
2022-07-29T19:32:38.229Z,63.27
2022-07-29T19:35:23.718Z,62.93
2022-07-29T19:37:50.170Z,62.66
2022-07-29T19:40:16.255Z,62.59
2022-07-29T19:42:42.911Z,62.74
2022-07-29T19:45:09.948Z,63.17
2022-07-29T19:47:35.812Z,64.00
2022-07-29T19:50:01.747Z,64.16
2022-07-29T19:52:27.994Z,64.59
2022-07-29T19:54:54.025Z,64.42
2022-07-29T19:57:19.913Z,65.04
2022-07-29T19:59:45.815Z,64.89
2022-07-29T20:02:12.394Z,64.91
2022-07-29T20:04:38.537Z,65.07
2022-07-29T20:07:05.590Z,65.09
2022-07-29T20:09:31.559Z,65.18
2022-07-29T20:11:57.722Z,65.35
2022-07-29T20:14:23.703Z,65.28
2022-07-29T20:16:49.931Z,66.09
2022-07-29T20:19:16.471Z,66.50
2022-07-29T20:21:42.328Z,66.24
2022-07-29T20:24:09.611Z,66.41
2022-07-29T20:26:35.475Z,66.42
2022-07-29T20:29:04.391Z,66.35
2022-07-29T20:31:33.561Z,65.77
2022-07-29T20:34:01.126Z,66.36
2022-07-29T20:36:27.643Z,66.56
2022-07-29T20:38:54.300Z,66.13
2022-07-29T20:41:20.722Z,66.28
2022-07-29T20:43:48.934Z,66.72
2022-07-29T20:46:15.637Z,67.15
2022-07-29T20:48:41.559Z,66.60
2022-07-29T20:51:07.576Z,66.57
2022-07-29T20:53:36.509Z,66.46
2022-07-29T20:56:02.604Z,66.51
2022-07-29T20:58:28.435Z,66.50
2022-07-29T21:00:54.311Z,66.11
2022-07-29T21:03:20.429Z,65.60
2022-07-29T21:05:46.396Z,65.91
2022-07-29T21:08:12.309Z,66.00
2022-07-29T21:10:38.175Z,66.01
2022-07-29T21:13:04.021Z,65.86
2022-07-29T21:15:30.208Z,65.89
2022-07-29T21:18:01.426Z,65.80
2022-07-29T21:20:28.423Z,65.54
2022-07-29T21:22:54.931Z,65.45
2022-07-29T21:25:22.304Z,65.36
2022-07-29T21:28:07.111Z,65.33
2022-07-29T21:30:33.211Z,65.55
2022-07-29T21:32:59.075Z,65.38
2022-07-29T21:36:02.106Z,65.63
2022-07-29T21:38:11.664Z,65.39
2022-07-29T21:40:37.742Z,64.99
2022-07-29T21:43:03.614Z,64.72
2022-07-29T21:45:29.759Z,64.51
2022-07-29T21:47:55.702Z,64.46
2022-07-29T21:50:21.626Z,64.42
2022-07-29T21:52:47.452Z,64.73
2022-07-29T21:55:13.369Z,64.57
2022-07-29T21:57:39.637Z,64.58
2022-07-29T22:00:07.113Z,64.79
2022-07-29T22:02:32.956Z,65.30
2022-07-29T22:04:58.892Z,65.57
2022-07-29T22:07:24.764Z,65.39
2022-07-29T22:10:10.778Z,65.38
2022-07-29T22:12:36.868Z,65.93
2022-07-29T22:15:03.753Z,66.53
2022-07-29T22:17:29.813Z,66.83
2022-07-29T22:19:57.654Z,67.00
2022-07-29T22:22:23.864Z,67.40
2022-07-29T22:24:49.878Z,67.57
2022-07-29T22:27:15.872Z,69.12
2022-07-29T22:29:41.702Z,69.33
2022-07-29T22:32:07.629Z,69.63
2022-07-29T22:34:38.021Z,70.09
2022-07-29T22:37:04.178Z,70.40
2022-07-29T22:39:30.096Z,70.38
2022-07-29T22:41:55.932Z,70.32
2022-07-29T22:44:22.002Z,70.56
2022-07-29T22:46:47.921Z,70.61
2022-07-29T22:49:13.803Z,70.54
2022-07-29T22:51:40.043Z,70.31
2022-07-29T22:54:05.880Z,70.34
2022-07-29T22:56:31.697Z,70.45
2022-07-29T22:58:57.826Z,70.42
2022-07-29T23:01:35.811Z,70.19
2022-07-29T23:04:03.773Z,70.25
2022-07-29T23:06:29.728Z,70.57
2022-07-29T23:08:55.571Z,70.31
2022-07-29T23:11:21.473Z,70.83
2022-07-29T23:13:47.328Z,70.36
2022-07-29T23:16:13.571Z,70.14
2022-07-29T23:18:39.394Z,70.11
2022-07-29T23:21:05.465Z,71.18
2022-07-29T23:23:32.388Z,71.68
2022-07-29T23:25:58.403Z,71.64
2022-07-29T23:28:24.480Z,71.19
2022-07-29T23:30:50.474Z,71.29
2022-07-29T23:33:16.355Z,71.37
2022-07-29T23:35:42.205Z,70.87
2022-07-29T23:38:08.073Z,70.83
2022-07-29T23:40:33.878Z,70.73
2022-07-29T23:42:59.697Z,71.32
2022-07-29T23:45:42.729Z,71.41
2022-07-29T23:48:11.017Z,71.20
2022-07-29T23:50:36.851Z,71.04
2022-07-29T23:53:02.944Z,70.97
2022-07-29T23:55:38.212Z,70.71
2022-07-29T23:58:04.901Z,70.75
